sensor_id;sensor_type;location;lat;lon;timestamp;P1;durP1;ratioP1;P2;durP2;ratioP2
47523;SDS011;33253;42.144;25.884;2023-02-03T00:00:09;4.17;;;2.60;;
47523;SDS011;33253;42.144;25.884;2023-02-03T00:02:35;5.00;;;2.30;;
47523;SDS011;33253;42.144;25.884;2023-02-03T00:05:01;4.10;;;2.38;;
47523;SDS011;33253;42.144;25.884;2023-02-03T00:07:27;4.80;;;2.42;;
47523;SDS011;33253;42.144;25.884;2023-02-03T00:09:54;5.43;;;2.70;;
47523;SDS011;33253;42.144;25.884;2023-02-03T00:12:20;4.68;;;2.30;;
47523;SDS011;33253;42.144;25.884;2023-02-03T00:14:46;4.68;;;2.45;;
47523;SDS011;33253;42.144;25.884;2023-02-03T00:17:11;4.28;;;2.30;;
47523;SDS011;33253;42.144;25.884;2023-02-03T00:19:36;4.10;;;2.58;;
47523;SDS011;33253;42.144;25.884;2023-02-03T00:22:02;3.47;;;2.47;;
47523;SDS011;33253;42.144;25.884;2023-02-03T00:24:27;4.13;;;2.60;;
47523;SDS011;33253;42.144;25.884;2023-02-03T00:26:53;4.73;;;3.17;;
47523;SDS011;33253;42.144;25.884;2023-02-03T00:29:18;4.87;;;2.73;;
47523;SDS011;33253;42.144;25.884;2023-02-03T00:31:48;4.95;;;2.55;;
47523;SDS011;33253;42.144;25.884;2023-02-03T00:34:14;3.30;;;2.28;;
47523;SDS011;33253;42.144;25.884;2023-02-03T00:36:39;5.27;;;2.67;;
47523;SDS011;33253;42.144;25.884;2023-02-03T00:39:05;3.67;;;2.50;;
47523;SDS011;33253;42.144;25.884;2023-02-03T00:41:30;3.78;;;2.50;;
47523;SDS011;33253;42.144;25.884;2023-02-03T00:43:55;3.93;;;2.20;;
47523;SDS011;33253;42.144;25.884;2023-02-03T00:46:21;4.10;;;2.77;;
47523;SDS011;33253;42.144;25.884;2023-02-03T00:48:46;4.47;;;2.47;;
47523;SDS011;33253;42.144;25.884;2023-02-03T00:51:12;4.45;;;2.42;;
47523;SDS011;33253;42.144;25.884;2023-02-03T00:53:37;3.43;;;2.33;;
47523;SDS011;33253;42.144;25.884;2023-02-03T00:56:04;4.30;;;2.50;;
47523;SDS011;33253;42.144;25.884;2023-02-03T00:58:36;4.40;;;2.60;;
47523;SDS011;33253;42.144;25.884;2023-02-03T01:01:02;4.97;;;2.73;;
47523;SDS011;33253;42.144;25.884;2023-02-03T01:03:28;6.80;;;2.40;;
47523;SDS011;33253;42.144;25.884;2023-02-03T01:05:53;3.67;;;2.30;;
47523;SDS011;33253;42.144;25.884;2023-02-03T01:08:19;4.50;;;2.50;;
47523;SDS011;33253;42.144;25.884;2023-02-03T01:10:44;4.40;;;2.53;;
47523;SDS011;33253;42.144;25.884;2023-02-03T01:13:10;4.20;;;2.20;;
47523;SDS011;33253;42.144;25.884;2023-02-03T01:15:35;6.03;;;2.72;;
47523;SDS011;33253;42.144;25.884;2023-02-03T01:18:01;6.40;;;2.97;;
47523;SDS011;33253;42.144;25.884;2023-02-03T01:20:26;5.07;;;3.07;;
47523;SDS011;33253;42.144;25.884;2023-02-03T01:22:51;4.57;;;2.77;;
47523;SDS011;33253;42.144;25.884;2023-02-03T01:25:17;4.67;;;2.70;;
47523;SDS011;33253;42.144;25.884;2023-02-03T01:27:42;5.20;;;3.10;;
47523;SDS011;33253;42.144;25.884;2023-02-03T01:30:08;4.80;;;3.20;;
47523;SDS011;33253;42.144;25.884;2023-02-03T01:32:34;4.30;;;2.40;;
47523;SDS011;33253;42.144;25.884;2023-02-03T01:34:59;5.05;;;2.72;;
47523;SDS011;33253;42.144;25.884;2023-02-03T01:37:25;5.13;;;2.90;;
47523;SDS011;33253;42.144;25.884;2023-02-03T01:39:50;4.05;;;2.80;;
47523;SDS011;33253;42.144;25.884;2023-02-03T01:42:15;4.83;;;3.10;;
47523;SDS011;33253;42.144;25.884;2023-02-03T01:49:44;4.88;;;2.72;;
47523;SDS011;33253;42.144;25.884;2023-02-03T01:52:13;6.97;;;3.28;;
47523;SDS011;33253;42.144;25.884;2023-02-03T01:54:41;7.40;;;3.05;;
47523;SDS011;33253;42.144;25.884;2023-02-03T01:57:10;3.70;;;2.40;;
47523;SDS011;33253;42.144;25.884;2023-02-03T01:59:40;5.43;;;3.10;;
47523;SDS011;33253;42.144;25.884;2023-02-03T02:02:07;5.10;;;2.93;;
47523;SDS011;33253;42.144;25.884;2023-02-03T02:04:45;4.33;;;3.10;;
47523;SDS011;33253;42.144;25.884;2023-02-03T02:07:19;7.03;;;3.10;;
47523;SDS011;33253;42.144;25.884;2023-02-03T02:09:45;5.10;;;3.07;;
47523;SDS011;33253;42.144;25.884;2023-02-03T02:12:11;4.40;;;2.73;;
47523;SDS011;33253;42.144;25.884;2023-02-03T02:14:37;4.60;;;2.77;;
47523;SDS011;33253;42.144;25.884;2023-02-03T02:17:05;4.07;;;2.53;;
47523;SDS011;33253;42.144;25.884;2023-02-03T02:20:13;4.30;;;3.17;;
47523;SDS011;33253;42.144;25.884;2023-02-03T02:31:04;4.43;;;2.80;;
47523;SDS011;33253;42.144;25.884;2023-02-03T02:33:56;6.40;;;2.90;;
47523;SDS011;33253;42.144;25.884;2023-02-03T02:36:41;4.90;;;2.78;;
47523;SDS011;33253;42.144;25.884;2023-02-03T02:39:19;4.53;;;2.78;;
47523;SDS011;33253;42.144;25.884;2023-02-03T02:42:00;4.70;;;2.67;;
47523;SDS011;33253;42.144;25.884;2023-02-03T02:44:34;4.70;;;2.83;;
47523;SDS011;33253;42.144;25.884;2023-02-03T02:47:08;4.53;;;2.83;;
47523;SDS011;33253;42.144;25.884;2023-02-03T02:52:18;4.60;;;2.67;;
47523;SDS011;33253;42.144;25.884;2023-02-03T02:54:51;5.13;;;2.70;;
47523;SDS011;33253;42.144;25.884;2023-02-03T02:57:20;3.95;;;2.42;;
47523;SDS011;33253;42.144;25.884;2023-02-03T02:59:50;3.75;;;2.40;;
47523;SDS011;33253;42.144;25.884;2023-02-03T03:02:15;3.92;;;2.50;;
47523;SDS011;33253;42.144;25.884;2023-02-03T03:04:41;6.10;;;2.67;;
47523;SDS011;33253;42.144;25.884;2023-02-03T03:07:12;6.57;;;2.95;;
47523;SDS011;33253;42.144;25.884;2023-02-03T03:09:48;3.45;;;2.28;;
47523;SDS011;33253;42.144;25.884;2023-02-03T03:12:20;3.70;;;2.17;;
47523;SDS011;33253;42.144;25.884;2023-02-03T03:14:54;5.55;;;2.47;;
47523;SDS011;33253;42.144;25.884;2023-02-03T03:17:27;4.40;;;2.37;;
47523;SDS011;33253;42.144;25.884;2023-02-03T03:19:59;5.07;;;2.70;;
47523;SDS011;33253;42.144;25.884;2023-02-03T03:22:31;3.80;;;2.50;;
47523;SDS011;33253;42.144;25.884;2023-02-03T03:25:20;4.03;;;2.27;;
47523;SDS011;33253;42.144;25.884;2023-02-03T03:27:57;4.73;;;2.80;;
47523;SDS011;33253;42.144;25.884;2023-02-03T03:30:28;4.43;;;2.50;;
47523;SDS011;33253;42.144;25.884;2023-02-03T03:32:58;5.30;;;2.73;;
47523;SDS011;33253;42.144;25.884;2023-02-03T03:35:24;5.03;;;2.40;;
47523;SDS011;33253;42.144;25.884;2023-02-03T03:37:57;4.47;;;2.43;;
47523;SDS011;33253;42.144;25.884;2023-02-03T03:40:31;4.00;;;2.37;;
47523;SDS011;33253;42.144;25.884;2023-02-03T03:43:09;4.30;;;2.70;;
47523;SDS011;33253;42.144;25.884;2023-02-03T03:45:54;4.47;;;2.88;;
47523;SDS011;33253;42.144;25.884;2023-02-03T03:51:27;5.70;;;3.00;;
47523;SDS011;33253;42.144;25.884;2023-02-03T03:53:54;5.00;;;2.90;;
47523;SDS011;33253;42.144;25.884;2023-02-03T03:56:27;6.95;;;3.00;;
47523;SDS011;33253;42.144;25.884;2023-02-03T03:58:56;5.80;;;2.95;;
47523;SDS011;33253;42.144;25.884;2023-02-03T04:01:25;4.93;;;2.83;;
47523;SDS011;33253;42.144;25.884;2023-02-03T04:03:53;3.10;;;2.60;;
47523;SDS011;33253;42.144;25.884;2023-02-03T04:06:22;4.80;;;2.80;;
47523;SDS011;33253;42.144;25.884;2023-02-03T04:08:48;4.28;;;2.67;;
47523;SDS011;33253;42.144;25.884;2023-02-03T04:11:13;4.88;;;2.80;;
47523;SDS011;33253;42.144;25.884;2023-02-03T04:13:58;4.32;;;2.92;;
47523;SDS011;33253;42.144;25.884;2023-02-03T04:16:24;4.28;;;2.65;;
47523;SDS011;33253;42.144;25.884;2023-02-03T04:18:49;7.13;;;2.72;;
47523;SDS011;33253;42.144;25.884;2023-02-03T04:21:15;6.03;;;2.78;;
47523;SDS011;33253;42.144;25.884;2023-02-03T04:23:40;3.95;;;2.65;;
47523;SDS011;33253;42.144;25.884;2023-02-03T04:26:05;5.32;;;2.63;;
47523;SDS011;33253;42.144;25.884;2023-02-03T04:28:31;4.68;;;2.65;;
47523;SDS011;33253;42.144;25.884;2023-02-03T04:30:59;5.65;;;2.60;;
47523;SDS011;33253;42.144;25.884;2023-02-03T04:33:24;7.25;;;3.53;;
47523;SDS011;33253;42.144;25.884;2023-02-03T04:35:50;9.23;;;3.03;;
47523;SDS011;33253;42.144;25.884;2023-02-03T04:38:15;6.53;;;3.40;;
47523;SDS011;33253;42.144;25.884;2023-02-03T04:40:41;5.63;;;2.80;;
47523;SDS011;33253;42.144;25.884;2023-02-03T04:43:06;6.15;;;2.80;;
47523;SDS011;33253;42.144;25.884;2023-02-03T04:45:32;3.75;;;2.45;;
47523;SDS011;33253;42.144;25.884;2023-02-03T04:47:58;5.25;;;2.92;;
47523;SDS011;33253;42.144;25.884;2023-02-03T04:50:23;5.90;;;2.72;;
47523;SDS011;33253;42.144;25.884;2023-02-03T04:52:48;6.93;;;2.80;;
47523;SDS011;33253;42.144;25.884;2023-02-03T04:55:14;5.68;;;2.90;;
47523;SDS011;33253;42.144;25.884;2023-02-03T04:57:40;5.70;;;2.72;;
47523;SDS011;33253;42.144;25.884;2023-02-03T05:00:05;5.45;;;3.33;;
47523;SDS011;33253;42.144;25.884;2023-02-03T05:02:31;6.43;;;3.13;;
47523;SDS011;33253;42.144;25.884;2023-02-03T05:04:56;6.85;;;2.95;;
47523;SDS011;33253;42.144;25.884;2023-02-03T05:07:22;8.73;;;3.40;;
47523;SDS011;33253;42.144;25.884;2023-02-03T05:13:09;6.78;;;3.78;;
47523;SDS011;33253;42.144;25.884;2023-02-03T05:15:36;6.90;;;3.00;;
47523;SDS011;33253;42.144;25.884;2023-02-03T05:18:01;4.90;;;3.38;;
47523;SDS011;33253;42.144;25.884;2023-02-03T05:20:26;8.18;;;3.53;;
47523;SDS011;33253;42.144;25.884;2023-02-03T05:22:52;6.25;;;3.90;;
47523;SDS011;33253;42.144;25.884;2023-02-03T05:25:17;7.05;;;3.67;;
47523;SDS011;33253;42.144;25.884;2023-02-03T05:27:43;6.82;;;3.38;;
47523;SDS011;33253;42.144;25.884;2023-02-03T05:30:08;6.47;;;3.17;;
47523;SDS011;33253;42.144;25.884;2023-02-03T05:32:36;6.75;;;3.78;;
47523;SDS011;33253;42.144;25.884;2023-02-03T05:35:01;5.60;;;3.60;;
47523;SDS011;33253;42.144;25.884;2023-02-03T05:37:26;8.57;;;3.95;;
47523;SDS011;33253;42.144;25.884;2023-02-03T05:39:52;7.28;;;3.85;;
47523;SDS011;33253;42.144;25.884;2023-02-03T05:42:17;11.15;;;4.45;;
47523;SDS011;33253;42.144;25.884;2023-02-03T05:44:43;6.47;;;4.28;;
47523;SDS011;33253;42.144;25.884;2023-02-03T05:47:08;6.72;;;4.10;;
47523;SDS011;33253;42.144;25.884;2023-02-03T05:49:34;9.38;;;4.38;;
47523;SDS011;33253;42.144;25.884;2023-02-03T05:52:00;6.50;;;3.50;;
47523;SDS011;33253;42.144;25.884;2023-02-03T05:54:25;8.00;;;4.47;;
47523;SDS011;33253;42.144;25.884;2023-02-03T05:56:51;7.25;;;4.13;;
47523;SDS011;33253;42.144;25.884;2023-02-03T05:59:16;7.35;;;4.03;;
47523;SDS011;33253;42.144;25.884;2023-02-03T06:01:42;7.63;;;4.57;;
47523;SDS011;33253;42.144;25.884;2023-02-03T06:04:07;23.20;;;9.10;;
47523;SDS011;33253;42.144;25.884;2023-02-03T06:06:33;11.70;;;5.00;;
47523;SDS011;33253;42.144;25.884;2023-02-03T06:08:59;10.30;;;5.73;;
47523;SDS011;33253;42.144;25.884;2023-02-03T06:11:26;7.68;;;5.22;;
47523;SDS011;33253;42.144;25.884;2023-02-03T06:13:52;7.00;;;4.60;;
47523;SDS011;33253;42.144;25.884;2023-02-03T06:16:19;8.43;;;4.10;;
47523;SDS011;33253;42.144;25.884;2023-02-03T06:18:44;8.55;;;4.75;;
47523;SDS011;33253;42.144;25.884;2023-02-03T06:21:09;12.50;;;5.88;;
47523;SDS011;33253;42.144;25.884;2023-02-03T06:23:35;9.95;;;5.75;;
47523;SDS011;33253;42.144;25.884;2023-02-03T06:26:00;21.13;;;8.68;;
47523;SDS011;33253;42.144;25.884;2023-02-03T06:28:26;7.60;;;4.38;;
47523;SDS011;33253;42.144;25.884;2023-02-03T06:31:11;7.50;;;4.38;;
47523;SDS011;33253;42.144;25.884;2023-02-03T06:33:37;6.70;;;3.90;;
47523;SDS011;33253;42.144;25.884;2023-02-03T06:36:02;8.48;;;4.47;;
47523;SDS011;33253;42.144;25.884;2023-02-03T06:38:28;6.53;;;4.15;;
47523;SDS011;33253;42.144;25.884;2023-02-03T06:40:53;7.95;;;4.90;;
47523;SDS011;33253;42.144;25.884;2023-02-03T06:43:19;8.55;;;4.90;;
47523;SDS011;33253;42.144;25.884;2023-02-03T06:45:44;9.77;;;4.85;;
47523;SDS011;33253;42.144;25.884;2023-02-03T06:48:11;8.68;;;5.20;;
47523;SDS011;33253;42.144;25.884;2023-02-03T06:50:36;9.23;;;4.60;;
47523;SDS011;33253;42.144;25.884;2023-02-03T06:53:02;12.60;;;5.22;;
47523;SDS011;33253;42.144;25.884;2023-02-03T06:55:27;8.60;;;4.88;;
47523;SDS011;33253;42.144;25.884;2023-02-03T06:57:53;6.68;;;4.00;;
47523;SDS011;33253;42.144;25.884;2023-02-03T07:00:18;6.70;;;3.78;;
47523;SDS011;33253;42.144;25.884;2023-02-03T07:02:45;7.07;;;4.32;;
47523;SDS011;33253;42.144;25.884;2023-02-03T07:05:10;8.48;;;4.13;;
47523;SDS011;33253;42.144;25.884;2023-02-03T07:07:36;9.65;;;4.18;;
47523;SDS011;33253;42.144;25.884;2023-02-03T07:10:03;9.43;;;4.60;;
47523;SDS011;33253;42.144;25.884;2023-02-03T07:12:30;9.45;;;4.05;;
47523;SDS011;33253;42.144;25.884;2023-02-03T07:14:55;10.15;;;5.15;;
47523;SDS011;33253;42.144;25.884;2023-02-03T07:17:21;9.70;;;5.07;;
47523;SDS011;33253;42.144;25.884;2023-02-03T07:19:46;9.93;;;5.03;;
47523;SDS011;33253;42.144;25.884;2023-02-03T07:22:11;7.40;;;5.03;;
47523;SDS011;33253;42.144;25.884;2023-02-03T07:24:37;15.52;;;8.18;;
47523;SDS011;33253;42.144;25.884;2023-02-03T07:27:02;11.23;;;6.15;;
47523;SDS011;33253;42.144;25.884;2023-02-03T07:29:28;13.63;;;8.85;;
47523;SDS011;33253;42.144;25.884;2023-02-03T07:31:54;12.40;;;7.43;;
47523;SDS011;33253;42.144;25.884;2023-02-03T07:34:19;9.38;;;6.10;;
47523;SDS011;33253;42.144;25.884;2023-02-03T07:36:45;8.95;;;6.15;;
47523;SDS011;33253;42.144;25.884;2023-02-03T07:39:10;8.57;;;6.07;;
47523;SDS011;33253;42.144;25.884;2023-02-03T07:41:35;7.38;;;4.30;;
47523;SDS011;33253;42.144;25.884;2023-02-03T07:44:01;21.67;;;10.85;;
47523;SDS011;33253;42.144;25.884;2023-02-03T07:46:27;74.53;;;33.45;;
47523;SDS011;33253;42.144;25.884;2023-02-03T07:48:52;14.55;;;7.95;;
47523;SDS011;33253;42.144;25.884;2023-02-03T07:51:18;11.57;;;6.50;;
47523;SDS011;33253;42.144;25.884;2023-02-03T07:53:43;11.60;;;7.57;;
47523;SDS011;33253;42.144;25.884;2023-02-03T07:56:09;10.23;;;5.72;;
47523;SDS011;33253;42.144;25.884;2023-02-03T07:58:36;9.20;;;5.38;;
47523;SDS011;33253;42.144;25.884;2023-02-03T08:01:08;13.82;;;9.27;;
47523;SDS011;33253;42.144;25.884;2023-02-03T08:03:34;21.33;;;13.52;;
47523;SDS011;33253;42.144;25.884;2023-02-03T08:06:00;9.13;;;5.45;;
47523;SDS011;33253;42.144;25.884;2023-02-03T08:08:25;8.45;;;5.75;;
47523;SDS011;33253;42.144;25.884;2023-02-03T08:10:50;7.53;;;5.40;;
47523;SDS011;33253;42.144;25.884;2023-02-03T08:13:16;9.32;;;4.75;;
47523;SDS011;33253;42.144;25.884;2023-02-03T08:15:41;6.53;;;3.95;;
47523;SDS011;33253;42.144;25.884;2023-02-03T08:18:06;5.13;;;3.40;;
47523;SDS011;33253;42.144;25.884;2023-02-03T08:20:33;6.18;;;3.65;;
47523;SDS011;33253;42.144;25.884;2023-02-03T08:22:59;9.77;;;3.55;;
47523;SDS011;33253;42.144;25.884;2023-02-03T08:25:24;6.60;;;3.10;;
47523;SDS011;33253;42.144;25.884;2023-02-03T08:27:49;5.43;;;3.08;;
47523;SDS011;33253;42.144;25.884;2023-02-03T08:30:19;4.72;;;3.08;;
47523;SDS011;33253;42.144;25.884;2023-02-03T08:32:45;4.55;;;2.72;;
47523;SDS011;33253;42.144;25.884;2023-02-03T08:35:10;3.20;;;2.05;;
47523;SDS011;33253;42.144;25.884;2023-02-03T08:37:35;5.05;;;2.25;;
47523;SDS011;33253;42.144;25.884;2023-02-03T08:40:02;2.72;;;2.00;;
47523;SDS011;33253;42.144;25.884;2023-02-03T08:42:28;4.45;;;2.63;;
47523;SDS011;33253;42.144;25.884;2023-02-03T08:44:53;3.03;;;1.65;;
47523;SDS011;33253;42.144;25.884;2023-02-03T08:47:19;3.28;;;2.00;;
47523;SDS011;33253;42.144;25.884;2023-02-03T08:49:44;5.20;;;3.17;;
47523;SDS011;33253;42.144;25.884;2023-02-03T08:52:11;5.07;;;2.70;;
47523;SDS011;33253;42.144;25.884;2023-02-03T08:54:38;4.65;;;2.40;;
47523;SDS011;33253;42.144;25.884;2023-02-03T08:57:04;4.05;;;2.28;;
47523;SDS011;33253;42.144;25.884;2023-02-03T08:59:30;2.55;;;1.80;;
47523;SDS011;33253;42.144;25.884;2023-02-03T09:04:57;3.35;;;1.85;;
47523;SDS011;33253;42.144;25.884;2023-02-03T09:07:22;4.00;;;1.70;;
47523;SDS011;33253;42.144;25.884;2023-02-03T09:09:48;2.90;;;2.10;;
47523;SDS011;33253;42.144;25.884;2023-02-03T09:12:14;3.88;;;1.92;;
47523;SDS011;33253;42.144;25.884;2023-02-03T09:14:39;4.85;;;2.65;;
47523;SDS011;33253;42.144;25.884;2023-02-03T09:17:05;7.80;;;3.20;;
47523;SDS011;33253;42.144;25.884;2023-02-03T09:19:34;6.03;;;3.15;;
47523;SDS011;33253;42.144;25.884;2023-02-03T09:22:00;9.60;;;4.90;;
47523;SDS011;33253;42.144;25.884;2023-02-03T09:24:25;7.07;;;3.40;;
47523;SDS011;33253;42.144;25.884;2023-02-03T09:26:51;5.65;;;3.42;;
47523;SDS011;33253;42.144;25.884;2023-02-03T09:29:17;3.92;;;2.47;;
47523;SDS011;33253;42.144;25.884;2023-02-03T09:31:44;7.10;;;3.38;;
47523;SDS011;33253;42.144;25.884;2023-02-03T09:34:11;2.20;;;1.63;;
47523;SDS011;33253;42.144;25.884;2023-02-03T09:36:36;4.18;;;1.63;;
47523;SDS011;33253;42.144;25.884;2023-02-03T09:39:02;2.40;;;1.70;;
47523;SDS011;33253;42.144;25.884;2023-02-03T09:41:33;9.60;;;4.72;;
47523;SDS011;33253;42.144;25.884;2023-02-03T09:46:43;26.08;;;11.18;;
47523;SDS011;33253;42.144;25.884;2023-02-03T09:49:17;28.60;;;10.68;;
47523;SDS011;33253;42.144;25.884;2023-02-03T09:52:08;28.77;;;11.20;;
47523;SDS011;33253;42.144;25.884;2023-02-03T09:57:21;47.10;;;18.08;;
47523;SDS011;33253;42.144;25.884;2023-02-03T09:59:48;5.85;;;3.03;;
47523;SDS011;33253;42.144;25.884;2023-02-03T10:17:56;5.45;;;2.05;;
47523;SDS011;33253;42.144;25.884;2023-02-03T10:23:14;3.70;;;2.00;;
47523;SDS011;33253;42.144;25.884;2023-02-03T10:25:50;4.53;;;1.95;;
47523;SDS011;33253;42.144;25.884;2023-02-03T10:28:22;3.67;;;1.92;;
47523;SDS011;33253;42.144;25.884;2023-02-03T10:31:02;2.70;;;1.80;;
47523;SDS011;33253;42.144;25.884;2023-02-03T10:33:39;4.63;;;2.00;;
47523;SDS011;33253;42.144;25.884;2023-02-03T10:41:22;2.95;;;1.92;;
47523;SDS011;33253;42.144;25.884;2023-02-03T10:43:50;3.22;;;1.88;;
47523;SDS011;33253;42.144;25.884;2023-02-03T10:46:35;2.90;;;1.60;;
47523;SDS011;33253;42.144;25.884;2023-02-03T10:49:03;3.00;;;1.88;;
47523;SDS011;33253;42.144;25.884;2023-02-03T10:51:32;2.75;;;1.70;;
47523;SDS011;33253;42.144;25.884;2023-02-03T10:54:01;3.03;;;1.70;;
47523;SDS011;33253;42.144;25.884;2023-02-03T10:56:36;3.38;;;1.98;;
47523;SDS011;33253;42.144;25.884;2023-02-03T10:59:03;1.98;;;1.30;;
47523;SDS011;33253;42.144;25.884;2023-02-03T11:01:39;3.47;;;1.65;;
47523;SDS011;33253;42.144;25.884;2023-02-03T11:04:08;2.10;;;1.58;;
47523;SDS011;33253;42.144;25.884;2023-02-03T11:06:58;1.63;;;1.20;;
47523;SDS011;33253;42.144;25.884;2023-02-03T11:09:47;3.97;;;1.55;;
47523;SDS011;33253;42.144;25.884;2023-02-03T11:12:17;2.30;;;1.20;;
47523;SDS011;33253;42.144;25.884;2023-02-03T11:14:51;2.03;;;1.52;;
47523;SDS011;33253;42.144;25.884;2023-02-03T11:17:18;3.85;;;2.30;;
47523;SDS011;33253;42.144;25.884;2023-02-03T11:22:25;2.78;;;1.20;;
47523;SDS011;33253;42.144;25.884;2023-02-03T11:24:51;2.60;;;1.50;;
47523;SDS011;33253;42.144;25.884;2023-02-03T11:27:17;2.60;;;1.65;;
47523;SDS011;33253;42.144;25.884;2023-02-03T11:29:45;3.08;;;1.90;;
47523;SDS011;33253;42.144;25.884;2023-02-03T11:35:18;3.08;;;1.50;;
47523;SDS011;33253;42.144;25.884;2023-02-03T11:37:46;4.22;;;2.35;;
47523;SDS011;33253;42.144;25.884;2023-02-03T11:45:25;3.70;;;1.85;;
47523;SDS011;33253;42.144;25.884;2023-02-03T11:50:23;4.95;;;1.95;;
47523;SDS011;33253;42.144;25.884;2023-02-03T12:07:34;2.30;;;1.58;;
47523;SDS011;33253;42.144;25.884;2023-02-03T12:13:10;2.33;;;1.50;;
47523;SDS011;33253;42.144;25.884;2023-02-03T12:26:50;1.98;;;1.42;;
47523;SDS011;33253;42.144;25.884;2023-02-03T12:29:40;2.05;;;1.38;;
47523;SDS011;33253;42.144;25.884;2023-02-03T12:34:56;2.72;;;1.63;;
47523;SDS011;33253;42.144;25.884;2023-02-03T12:37:41;2.08;;;1.30;;
47523;SDS011;33253;42.144;25.884;2023-02-03T12:40:25;1.65;;;1.40;;
47523;SDS011;33253;42.144;25.884;2023-02-03T12:45:33;2.78;;;1.80;;
47523;SDS011;33253;42.144;25.884;2023-02-03T12:48:10;3.08;;;1.50;;
47523;SDS011;33253;42.144;25.884;2023-02-03T12:50:43;3.30;;;1.50;;
47523;SDS011;33253;42.144;25.884;2023-02-03T12:58:39;3.38;;;1.92;;
47523;SDS011;33253;42.144;25.884;2023-02-03T13:01:21;3.83;;;1.95;;
47523;SDS011;33253;42.144;25.884;2023-02-03T13:04:07;2.67;;;1.65;;
47523;SDS011;33253;42.144;25.884;2023-02-03T13:17:07;3.80;;;1.83;;
47523;SDS011;33253;42.144;25.884;2023-02-03T13:19:41;2.30;;;1.65;;
47523;SDS011;33253;42.144;25.884;2023-02-03T13:22:11;1.70;;;1.50;;
47523;SDS011;33253;42.144;25.884;2023-02-03T13:24:38;3.50;;;2.00;;
47523;SDS011;33253;42.144;25.884;2023-02-03T13:27:20;3.90;;;2.00;;
47523;SDS011;33253;42.144;25.884;2023-02-03T13:41:21;2.25;;;1.50;;
47523;SDS011;33253;42.144;25.884;2023-02-03T13:43:57;3.67;;;1.85;;
47523;SDS011;33253;42.144;25.884;2023-02-03T13:46:28;4.18;;;1.70;;
47523;SDS011;33253;42.144;25.884;2023-02-03T13:48:57;4.75;;;2.60;;
47523;SDS011;33253;42.144;25.884;2023-02-03T13:51:26;4.28;;;2.95;;
47523;SDS011;33253;42.144;25.884;2023-02-03T13:54:00;3.20;;;2.00;;
47523;SDS011;33253;42.144;25.884;2023-02-03T13:56:32;2.38;;;1.63;;
47523;SDS011;33253;42.144;25.884;2023-02-03T14:01:28;1.98;;;1.50;;
47523;SDS011;33253;42.144;25.884;2023-02-03T14:03:54;2.15;;;1.63;;
47523;SDS011;33253;42.144;25.884;2023-02-03T14:14:41;5.15;;;2.30;;
47523;SDS011;33253;42.144;25.884;2023-02-03T14:22:54;4.38;;;1.95;;
47523;SDS011;33253;42.144;25.884;2023-02-03T14:25:39;5.93;;;1.65;;
47523;SDS011;33253;42.144;25.884;2023-02-03T14:28:12;3.72;;;1.70;;
47523;SDS011;33253;42.144;25.884;2023-02-03T14:41:47;3.53;;;1.65;;
47523;SDS011;33253;42.144;25.884;2023-02-03T14:47:37;2.70;;;1.77;;
47523;SDS011;33253;42.144;25.884;2023-02-03T14:52:57;2.45;;;1.52;;
47523;SDS011;33253;42.144;25.884;2023-02-03T14:58:04;3.35;;;1.90;;
47523;SDS011;33253;42.144;25.884;2023-02-03T15:00:40;2.63;;;1.80;;
47523;SDS011;33253;42.144;25.884;2023-02-03T15:11:00;4.75;;;2.58;;
47523;SDS011;33253;42.144;25.884;2023-02-03T15:13:51;4.00;;;2.00;;
47523;SDS011;33253;42.144;25.884;2023-02-03T15:16:18;4.15;;;2.25;;
47523;SDS011;33253;42.144;25.884;2023-02-03T15:18:51;3.45;;;2.30;;
47523;SDS011;33253;42.144;25.884;2023-02-03T15:21:18;5.18;;;2.90;;
47523;SDS011;33253;42.144;25.884;2023-02-03T15:23:45;6.95;;;3.78;;
47523;SDS011;33253;42.144;25.884;2023-02-03T15:26:17;10.00;;;4.70;;
47523;SDS011;33253;42.144;25.884;2023-02-03T15:29:05;8.18;;;3.15;;
47523;SDS011;33253;42.144;25.884;2023-02-03T15:34:13;4.07;;;2.60;;
47523;SDS011;33253;42.144;25.884;2023-02-03T15:36:58;9.70;;;3.03;;
47523;SDS011;33253;42.144;25.884;2023-02-03T15:42:07;4.30;;;2.42;;
47523;SDS011;33253;42.144;25.884;2023-02-03T15:44:41;6.97;;;3.00;;
47523;SDS011;33253;42.144;25.884;2023-02-03T15:50:18;6.10;;;2.78;;
47523;SDS011;33253;42.144;25.884;2023-02-03T15:55:38;14.60;;;7.25;;
47523;SDS011;33253;42.144;25.884;2023-02-03T15:58:26;23.85;;;12.98;;
47523;SDS011;33253;42.144;25.884;2023-02-03T16:01:14;15.18;;;8.02;;
47523;SDS011;33253;42.144;25.884;2023-02-03T16:03:50;20.67;;;10.32;;
47523;SDS011;33253;42.144;25.884;2023-02-03T16:06:18;28.17;;;13.95;;
47523;SDS011;33253;42.144;25.884;2023-02-03T16:08:51;22.55;;;12.75;;
47523;SDS011;33253;42.144;25.884;2023-02-03T16:11:22;16.33;;;10.35;;
47523;SDS011;33253;42.144;25.884;2023-02-03T16:13:48;18.58;;;10.30;;
47523;SDS011;33253;42.144;25.884;2023-02-03T16:16:15;18.85;;;10.95;;
47523;SDS011;33253;42.144;25.884;2023-02-03T16:18:52;19.85;;;9.82;;
47523;SDS011;33253;42.144;25.884;2023-02-03T16:21:27;15.65;;;8.85;;
47523;SDS011;33253;42.144;25.884;2023-02-03T16:23:53;15.98;;;8.23;;
47523;SDS011;33253;42.144;25.884;2023-02-03T16:26:19;12.73;;;6.45;;
47523;SDS011;33253;42.144;25.884;2023-02-03T16:28:54;10.93;;;5.88;;
47523;SDS011;33253;42.144;25.884;2023-02-03T16:34:31;7.28;;;3.47;;
47523;SDS011;33253;42.144;25.884;2023-02-03T16:37:26;8.18;;;3.50;;
47523;SDS011;33253;42.144;25.884;2023-02-03T16:40:11;6.97;;;3.80;;
47523;SDS011;33253;42.144;25.884;2023-02-03T16:42:56;16.17;;;7.88;;
47523;SDS011;33253;42.144;25.884;2023-02-03T16:45:40;18.67;;;11.38;;
47523;SDS011;33253;42.144;25.884;2023-02-03T16:48:26;13.75;;;8.00;;
47523;SDS011;33253;42.144;25.884;2023-02-03T16:51:12;18.40;;;7.63;;
47523;SDS011;33253;42.144;25.884;2023-02-03T16:53:41;13.63;;;8.98;;
47523;SDS011;33253;42.144;25.884;2023-02-03T16:56:10;14.07;;;8.45;;
47523;SDS011;33253;42.144;25.884;2023-02-03T16:58:36;16.98;;;8.55;;
47523;SDS011;33253;42.144;25.884;2023-02-03T17:01:03;22.42;;;9.90;;
47523;SDS011;33253;42.144;25.884;2023-02-03T17:03:30;17.15;;;9.25;;
47523;SDS011;33253;42.144;25.884;2023-02-03T17:06:06;25.00;;;13.75;;
47523;SDS011;33253;42.144;25.884;2023-02-03T17:08:34;18.50;;;10.02;;
47523;SDS011;33253;42.144;25.884;2023-02-03T17:11:04;18.90;;;7.43;;
47523;SDS011;33253;42.144;25.884;2023-02-03T17:13:32;12.50;;;7.07;;
47523;SDS011;33253;42.144;25.884;2023-02-03T17:15:59;16.17;;;8.85;;
47523;SDS011;33253;42.144;25.884;2023-02-03T17:18:24;13.32;;;8.60;;
47523;SDS011;33253;42.144;25.884;2023-02-03T17:20:50;27.52;;;12.05;;
47523;SDS011;33253;42.144;25.884;2023-02-03T17:23:16;30.83;;;17.65;;
47523;SDS011;33253;42.144;25.884;2023-02-03T17:25:45;31.80;;;18.42;;
47523;SDS011;33253;42.144;25.884;2023-02-03T17:28:12;23.77;;;13.55;;
47523;SDS011;33253;42.144;25.884;2023-02-03T17:30:40;27.45;;;14.90;;
47523;SDS011;33253;42.144;25.884;2023-02-03T17:33:06;14.60;;;8.02;;
47523;SDS011;33253;42.144;25.884;2023-02-03T17:35:37;17.35;;;7.28;;
47523;SDS011;33253;42.144;25.884;2023-02-03T17:38:07;9.23;;;4.78;;
47523;SDS011;33253;42.144;25.884;2023-02-03T17:40:34;9.20;;;5.53;;
47523;SDS011;33253;42.144;25.884;2023-02-03T17:43:02;8.98;;;4.90;;
47523;SDS011;33253;42.144;25.884;2023-02-03T17:45:28;6.22;;;3.40;;
47523;SDS011;33253;42.144;25.884;2023-02-03T17:47:55;12.43;;;5.60;;
47523;SDS011;33253;42.144;25.884;2023-02-03T17:50:23;13.93;;;7.80;;